Ana Sayfa
METAR-TAF:

METAR-TAF

Havaalanları :

Guaymas, Meksika

Enlem: 27-58N, Boylam: 110-56W, yükseklik: 27 m

Güncel hava durumu gözlemi

Rapor saat 14:40 UTC de 49 dakika önce yapıldı.
Sakin rüzgar
Sıcaklık 27°C
Nem 37%
Basınç 1009 hPa
Görüş mesafesi: 16.1 km
Açık gökyüzü

METAR: MMGM 221440Z 00000KT 10SM SKC 27/11 A2980

Saat: 08:29 (15:29 UTC)

Tahmin

Rapor saat 05:10 UTC de 10 saat ve 19 dakika önce yapıldı.
Ayın 22'si saat 06 UTC'den ayın 23'si saat 06 UTC'ye kadar geçerli Tahmin
Rüzgar batı/güneybatıdan 5 kt
Görüş mesafesi: 10 km
25000 ft yükseklikte parçalı bulutlu
Ayın 22'si saat 1800 UTC'den
Rüzgar güneybatıdan 15 kt
Görüş mesafesi: 10 km
Açık gökyüzü
Ayın 23'si saat 0300 UTC'den
Rüzgar batı/güneybatıdan 5 kt
Görüş mesafesi: 10 km
25000 ft yükseklikte parçalı çok bulutlu

TAF: MMGM 220510Z 2206/2306 25005KT P6SM SCT250 FM221800 22015KT P6SM SKC FM230300 24005KT P6SM BKN250

4.000'den fazla havaalanı için hava durumu gözlemleri ve tahminleri (METAR ve TAF raporları).

Kullanılabilir istasyonlar harita üzerinde sarı ve kırmızı noktalarla gösterilir.

İstasyonun adını görmek için fareyi noktanın üzerinde gezdirin.

Sonrasında hava gözlem ve tahminlerini görmek için tıklayın.

Haritayı değiştirmek için: yaklaştırmak için siyah artı işaretli yeşil düğmeye ve uzaklaştırmak için de eksi işaretli düğmeye hızla tıklayın; bitişik haritalar için yeşil okları kullanın.


METAR-TAF: